Time;durP1;ratioP1;P1;durP2;ratioP2;P2;SDS_P1;SDS_P2;PMS_P1;PMS_P2;Temp;Humidity;BMP_temperature;BMP_pressure;BME280_temperature;BME280_humidity;BME280_pressure;Samples;Min_cycle;Max_cycle;Signal;HPM_P1;HPM_P2
2022/03/23 00:01:12;;;;;;;106.90;59.55;;;7.80;99.90;;;;;;5058301;28;20052;-80
2022/03/23 00:03:37;;;;;;;106.30;60.92;;;7.80;99.90;;;;;;5058167;28;20037;-80
2022/03/23 00:06:04;;;;;;;108.45;59.83;;;7.80;99.90;;;;;;5057918;28;20395;-80
2022/03/23 00:08:30;;;;;;;102.20;59.60;;;7.70;99.90;;;;;;5058153;28;20045;-80
2022/03/23 00:10:55;;;;;;;101.85;61.05;;;7.70;99.90;;;;;;5058211;28;20044;-80
2022/03/23 00:13:21;;;;;;;109.85;59.63;;;7.70;99.90;;;;;;5057960;28;20076;-80
2022/03/23 00:15:47;;;;;;;108.50;62.20;;;7.70;99.90;;;;;;5057858;28;20041;-80
2022/03/23 00:18:13;;;;;;;111.07;60.90;;;7.70;99.90;;;;;;5057608;28;20372;-80
2022/03/23 00:20:40;;;;;;;107.28;62.00;;;7.70;99.90;;;;;;5057880;28;20044;-80
2022/03/23 00:23:08;;;;;;;109.63;63.13;;;7.70;99.90;;;;;;5057942;28;20055;-80
2022/03/23 00:25:33;;;;;;;113.60;62.35;;;7.60;99.90;;;;;;5057646;28;20127;-80
2022/03/23 00:27:59;;;;;;;110.80;65.88;;;7.70;99.90;;;;;;5057919;28;20083;-80
2022/03/23 00:30:25;;;;;;;106.15;60.58;;;7.60;99.90;;;;;;5057329;28;20389;-80
2022/03/23 00:32:50;;;;;;;109.97;62.45;;;7.60;99.90;;;;;;5075485;28;20044;-80
2022/03/23 00:35:16;;;;;;;109.38;60.58;;;7.60;99.90;;;;;;5057469;28;20048;-80
2022/03/23 00:37:43;;;;;;;115.85;65.18;;;7.60;99.90;;;;;;5057628;28;20036;-80
2022/03/23 00:40:09;;;;;;;113.15;64.30;;;7.60;99.90;;;;;;5057609;28;20143;-80
2022/03/23 00:42:36;;;;;;;107.03;61.70;;;7.60;99.90;;;;;;5057324;28;20377;-80
2022/03/23 00:45:04;;;;;;;113.70;65.03;;;7.60;99.90;;;;;;5057338;28;20048;-80
2022/03/23 00:47:29;;;;;;;104.40;61.38;;;7.60;99.90;;;;;;5057068;28;20048;-80
2022/03/23 00:49:55;;;;;;;116.03;65.20;;;7.60;99.90;;;;;;5057251;28;20053;-80
2022/03/23 00:52:21;;;;;;;116.15;63.75;;;7.60;99.90;;;;;;5075277;28;20491;-80
2022/03/23 00:54:47;;;;;;;120.47;64.57;;;7.50;99.90;;;;;;5057033;28;20399;-80
2022/03/23 00:57:12;;;;;;;113.00;63.58;;;7.50;99.90;;;;;;5057043;28;20040;-80
2022/03/23 00:59:38;;;;;;;115.45;61.95;;;7.50;99.90;;;;;;5057073;28;20475;-80
2022/03/23 01:02:05;;;;;;;112.35;63.60;;;7.50;99.90;;;;;;5056853;28;20122;-80
2022/03/23 01:04:31;;;;;;;118.55;65.28;;;7.50;99.90;;;;;;5057008;28;20055;-80
2022/03/23 01:06:58;;;;;;;110.68;61.38;;;7.50;99.90;;;;;;5056853;28;20080;-80
2022/03/23 01:09:25;;;;;;;114.50;64.82;;;7.50;99.90;;;;;;5057130;28;20048;-80
2022/03/23 01:11:51;;;;;;;114.07;62.00;;;7.40;99.90;;;;;;5056721;28;20055;-80
2022/03/23 01:14:18;;;;;;;115.70;64.65;;;7.40;99.90;;;;;;5056738;28;20041;-80
2022/03/23 01:16:45;;;;;;;114.88;64.13;;;7.40;99.90;;;;;;5056517;28;20056;-80
2022/03/23 01:19:12;;;;;;;111.35;61.97;;;7.40;99.90;;;;;;5056527;28;20091;-80
2022/03/23 01:21:38;;;;;;;113.03;63.45;;;7.40;99.90;;;;;;5056495;28;20443;-80
2022/03/23 01:24:06;;;;;;;115.68;62.45;;;7.40;99.90;;;;;;5056491;28;20541;-80
2022/03/23 01:26:32;;;;;;;122.40;65.13;;;7.40;99.90;;;;;;5056539;28;20045;-80
2022/03/23 01:28:58;;;;;;;112.75;62.25;;;7.40;99.90;;;;;;5056292;28;20048;-80
2022/03/23 01:31:23;;;;;;;117.13;65.47;;;7.30;99.90;;;;;;5056214;28;20048;-80
2022/03/23 01:33:50;;;;;;;119.47;65.03;;;7.30;99.90;;;;;;5056206;28;20396;-80
2022/03/23 01:36:15;;;;;;;112.55;62.42;;;7.30;99.90;;;;;;5074251;28;20050;-80
2022/03/23 01:38:41;;;;;;;114.55;63.53;;;7.30;99.90;;;;;;5056458;28;20040;-80
2022/03/23 01:41:07;;;;;;;109.50;60.97;;;7.30;99.90;;;;;;5074126;28;20052;-80
2022/03/23 01:43:36;;;;;;;114.13;62.55;;;7.30;99.90;;;;;;5056002;28;20072;-80
2022/03/23 01:46:02;;;;;;;116.53;63.67;;;7.30;99.90;;;;;;5056250;28;20139;-80
2022/03/23 01:48:27;;;;;;;116.57;65.47;;;7.20;99.90;;;;;;5056256;28;20098;-80
2022/03/23 01:50:53;;;;;;;113.38;61.50;;;7.30;99.90;;;;;;5056346;28;20044;-80
2022/03/23 01:53:19;;;;;;;123.40;64.85;;;7.20;99.90;;;;;;5056306;28;20048;-80
2022/03/23 01:55:45;;;;;;;120.47;63.65;;;7.20;99.90;;;;;;5055926;28;20048;-80
2022/03/23 01:58:11;;;;;;;125.82;65.30;;;7.30;99.90;;;;;;5055827;28;20076;-80
2022/03/23 02:00:38;;;;;;;118.28;63.15;;;7.20;99.90;;;;;;5055584;28;20084;-81
2022/03/23 02:03:04;;;;;;;121.47;63.78;;;7.20;99.90;;;;;;5055809;28;20040;-80
2022/03/23 02:05:29;;;;;;;109.15;59.05;;;7.20;99.90;;;;;;5056103;28;20037;-81
2022/03/23 02:07:56;;;;;;;108.90;61.22;;;7.10;99.90;;;;;;5055842;28;20490;-80
2022/03/23 02:10:22;;;;;;;114.88;61.50;;;7.10;99.90;;;;;;5055756;28;20044;-80
2022/03/23 02:12:47;;;;;;;111.43;59.92;;;7.10;99.90;;;;;;5055567;28;20047;-80
2022/03/23 02:15:17;;;;;;;107.63;57.50;;;7.10;99.90;;;;;;5055518;28;20047;-81
2022/03/23 02:17:44;;;;;;;120.00;61.72;;;7.00;99.90;;;;;;5055922;28;20048;-80
2022/03/23 02:20:13;;;;;;;113.72;60.67;;;7.00;99.90;;;;;;5073460;28;20049;-80
2022/03/23 02:22:38;;;;;;;111.88;60.33;;;7.00;99.90;;;;;;5055563;28;20036;-80
2022/03/23 02:25:07;;;;;;;109.45;60.60;;;7.00;99.90;;;;;;5055642;28;20151;-80
2022/03/23 02:27:36;;;;;;;115.45;61.40;;;6.90;99.90;;;;;;5055663;28;20041;-80
2022/03/23 02:30:07;;;;;;;118.38;63.42;;;6.90;99.90;;;;;;5055577;28;20056;-80
2022/03/23 02:32:33;;;;;;;126.35;65.35;;;7.00;99.90;;;;;;5055454;28;20080;-80
2022/03/23 02:35:00;;;;;;;125.75;66.00;;;6.90;99.90;;;;;;5055675;28;20109;-80
2022/03/23 02:37:26;;;;;;;118.32;63.83;;;7.00;99.90;;;;;;5055737;28;20055;-80
2022/03/23 02:39:53;;;;;;;118.05;62.50;;;7.00;99.90;;;;;;5055635;28;20048;-80
2022/03/23 02:42:18;;;;;;;116.80;62.85;;;6.90;99.90;;;;;;5056043;28;20044;-80
2022/03/23 02:44:44;;;;;;;110.22;62.72;;;6.90;99.90;;;;;;5073430;28;20040;-80
2022/03/23 02:47:10;;;;;;;101.18;57.28;;;6.90;99.90;;;;;;5055678;28;20102;-80
2022/03/23 02:49:36;;;;;;;114.95;60.95;;;6.80;99.90;;;;;;5073123;28;20407;-80
2022/03/23 02:52:02;;;;;;;110.72;60.10;;;6.80;99.90;;;;;;5055650;28;20545;-80
2022/03/23 03:03:14;;;;;;;109.18;58.10;;;6.50;99.90;;;;;;5073307;28;20040;-80
2022/03/23 03:05:40;;;;;;;110.72;58.92;;;6.40;99.90;;;;;;5055197;28;20048;-80
2022/03/23 03:10:50;;;;;;;122.03;62.08;;;6.50;99.90;;;;;;5055220;28;20048;-80
2022/03/23 03:13:15;;;;;;;123.72;64.93;;;6.60;99.90;;;;;;5056619;28;20036;-80
2022/03/23 03:15:41;;;;;;;103.88;56.42;;;6.50;99.90;;;;;;5058873;28;20040;-80
2022/03/23 03:18:06;;;;;;;122.00;62.90;;;6.40;99.90;;;;;;5059178;28;20460;-83
2022/03/23 03:20:32;;;;;;;129.65;66.80;;;6.50;99.90;;;;;;5059113;28;20056;-83
2022/03/23 03:22:58;;;;;;;122.85;62.75;;;6.50;99.90;;;;;;5058894;28;20417;-83
2022/03/23 03:25:24;;;;;;;121.88;61.95;;;6.50;99.90;;;;;;5058766;28;20044;-83
2022/03/23 03:27:50;;;;;;;119.82;63.97;;;6.40;99.90;;;;;;5058579;28;20044;-83
2022/03/23 03:30:17;;;;;;;125.50;65.80;;;6.40;99.90;;;;;;5058475;28;20071;-83
2022/03/23 03:32:44;;;;;;;105.72;56.05;;;6.40;99.90;;;;;;5058544;28;20045;-83
2022/03/23 03:35:10;;;;;;;119.20;60.08;;;6.30;99.90;;;;;;5058712;28;20048;-83
2022/03/23 03:37:37;;;;;;;105.78;54.97;;;6.30;99.90;;;;;;5058725;28;20459;-83
2022/03/23 03:40:05;;;;;;;111.10;60.13;;;6.20;99.90;;;;;;5058593;28;20131;-83
2022/03/23 03:42:31;;;;;;;107.95;59.22;;;6.20;99.90;;;;;;5058425;28;20457;-83
2022/03/23 03:44:57;;;;;;;108.70;58.85;;;6.00;99.90;;;;;;5058991;28;20476;-83
2022/03/23 03:47:24;;;;;;;119.57;63.28;;;6.10;99.90;;;;;;5058675;28;20373;-83
2022/03/23 03:49:50;;;;;;;106.88;58.70;;;6.10;99.90;;;;;;5058566;28;20533;-83
2022/03/23 03:52:18;;;;;;;113.72;59.45;;;6.00;99.90;;;;;;5058526;28;20036;-83
2022/03/23 03:54:44;;;;;;;120.38;60.65;;;6.00;99.90;;;;;;5058023;28;20083;-83
2022/03/23 03:57:11;;;;;;;123.90;63.35;;;6.10;99.90;;;;;;5057999;28;20479;-83
2022/03/23 03:59:37;;;;;;;147.27;70.82;;;6.00;99.90;;;;;;5058498;28;20044;-83
2022/03/23 04:02:04;;;;;;;131.10;64.97;;;6.20;99.90;;;;;;5075949;28;20040;-82
2022/03/23 04:04:30;;;;;;;135.00;68.18;;;6.30;99.90;;;;;;5058249;28;20538;-83
2022/03/23 04:06:56;;;;;;;143.93;68.57;;;6.30;99.90;;;;;;5058010;28;20048;-83
2022/03/23 04:09:21;;;;;;;152.10;71.55;;;6.40;99.90;;;;;;5057842;28;20040;-83
2022/03/23 04:11:47;;;;;;;151.93;71.63;;;6.40;99.90;;;;;;5057849;28;20129;-83
2022/03/23 04:14:13;;;;;;;143.20;68.55;;;6.50;99.90;;;;;;5057990;28;20048;-83
2022/03/23 04:16:39;;;;;;;143.68;70.85;;;6.40;99.90;;;;;;5057787;28;20403;-83
2022/03/23 04:19:06;;;;;;;127.88;63.17;;;6.50;99.90;;;;;;5057762;28;20395;-83
2022/03/23 04:21:32;;;;;;;128.05;63.78;;;6.40;99.90;;;;;;5057932;28;20044;-83
2022/03/23 04:23:58;;;;;;;127.68;63.03;;;6.40;99.90;;;;;;5057072;28;20083;-83
2022/03/23 04:26:24;;;;;;;132.38;67.07;;;6.30;99.90;;;;;;5075526;28;20080;-83
2022/03/23 04:28:50;;;;;;;132.93;66.03;;;6.30;99.90;;;;;;5057788;28;20131;-83
2022/03/23 04:31:16;;;;;;;115.15;59.40;;;6.30;99.90;;;;;;5057416;28;20060;-83
2022/03/23 04:33:41;;;;;;;124.07;62.50;;;6.20;99.90;;;;;;5057544;28;20055;-83
2022/03/23 04:36:08;;;;;;;119.57;60.70;;;6.20;99.90;;;;;;5057393;28;20055;-83
2022/03/23 04:38:33;;;;;;;115.22;60.85;;;6.20;99.90;;;;;;5057485;28;20492;-83
2022/03/23 04:40:59;;;;;;;112.22;58.90;;;6.10;99.90;;;;;;5057538;28;20097;-83
2022/03/23 04:43:25;;;;;;;113.15;59.60;;;6.10;99.90;;;;;;5057235;28;20567;-83
2022/03/23 04:45:50;;;;;;;115.47;61.05;;;6.00;99.90;;;;;;5057572;28;20097;-83
2022/03/23 04:48:17;;;;;;;106.97;57.95;;;6.10;99.90;;;;;;5057515;28;20383;-83
2022/03/23 04:50:44;;;;;;;105.43;55.88;;;6.00;99.90;;;;;;5057135;28;20060;-83
2022/03/23 04:53:09;;;;;;;111.93;58.50;;;5.80;99.90;;;;;;5056976;28;20059;-83
2022/03/23 04:55:35;;;;;;;104.70;56.60;;;5.80;99.90;;;;;;5056911;28;20052;-83
2022/03/23 04:58:01;;;;;;;118.97;59.22;;;5.80;99.90;;;;;;5057243;28;20044;-83
2022/03/23 05:00:26;;;;;;;104.57;56.88;;;5.80;99.90;;;;;;5057251;28;20080;-83
2022/03/23 05:02:52;;;;;;;114.47;57.58;;;5.70;99.90;;;;;;5057258;28;20133;-83
2022/03/23 05:05:18;;;;;;;124.10;62.80;;;5.70;99.90;;;;;;5057157;28;20373;-82
2022/03/23 05:07:45;;;;;;;134.07;65.00;;;5.80;99.90;;;;;;5056515;28;20044;-83
2022/03/23 05:10:12;;;;;;;145.13;67.68;;;6.00;99.90;;;;;;5056669;28;20546;-83
2022/03/23 05:12:43;;;;;;;143.27;67.90;;;6.00;99.90;;;;;;5074520;28;20407;-83
2022/03/23 05:15:10;;;;;;;146.32;68.60;;;6.10;99.90;;;;;;5056645;28;20391;-83
2022/03/23 05:17:37;;;;;;;146.55;69.30;;;6.10;99.90;;;;;;5056681;28;20377;-84
2022/03/23 05:20:04;;;;;;;136.95;64.72;;;6.20;99.90;;;;;;5056212;28;20048;-83
2022/03/23 05:22:30;;;;;;;144.10;69.32;;;6.10;99.90;;;;;;5074170;28;20080;-83
2022/03/23 05:24:56;;;;;;;149.48;68.05;;;6.20;99.90;;;;;;5056187;28;20080;-83
2022/03/23 05:27:22;;;;;;;143.15;65.35;;;6.10;99.90;;;;;;5054812;28;20056;-83
2022/03/23 05:29:48;;;;;;;134.00;66.90;;;6.20;99.90;;;;;;5056048;28;20044;-83
2022/03/23 05:32:17;;;;;;;135.52;64.30;;;6.10;99.90;;;;;;5055892;28;20075;-83
2022/03/23 05:34:48;;;;;;;125.55;62.42;;;6.10;99.90;;;;;;5055835;28;20057;-83
2022/03/23 05:37:14;;;;;;;124.88;62.63;;;6.00;99.90;;;;;;5055575;28;20174;-83
2022/03/23 05:39:40;;;;;;;134.38;63.80;;;6.00;99.90;;;;;;5055827;28;20048;-83
2022/03/23 05:42:07;;;;;;;149.02;71.68;;;6.00;99.90;;;;;;5056276;28;20055;-83
2022/03/23 05:44:34;;;;;;;132.38;66.07;;;6.10;99.90;;;;;;5056062;28;20442;-83
2022/03/23 05:47:00;;;;;;;138.90;65.60;;;6.10;99.90;;;;;;5056025;28;20123;-83
2022/03/23 05:49:26;;;;;;;129.82;64.68;;;6.00;99.90;;;;;;5056140;28;20436;-83
2022/03/23 05:51:52;;;;;;;122.55;60.72;;;6.00;99.90;;;;;;5055832;28;20045;-83
2022/03/23 05:54:18;;;;;;;119.57;58.85;;;5.90;99.90;;;;;;5055882;28;20127;-83
2022/03/23 05:56:44;;;;;;;113.97;56.40;;;5.80;99.90;;;;;;5055712;28;20055;-83
2022/03/23 05:59:09;;;;;;;127.63;63.00;;;5.80;99.90;;;;;;5073534;28;20127;-83
2022/03/23 06:01:35;;;;;;;123.10;62.70;;;5.80;99.90;;;;;;5055818;28;20103;-83
2022/03/23 06:04:01;;;;;;;108.10;56.45;;;5.80;99.90;;;;;;5055644;28;20477;-83
2022/03/23 06:06:27;;;;;;;109.05;56.42;;;5.70;99.90;;;;;;5055886;28;20105;-83
2022/03/23 06:08:52;;;;;;;131.50;64.90;;;5.60;99.90;;;;;;5055861;28;20408;-83
2022/03/23 06:11:18;;;;;;;111.18;57.20;;;5.70;99.90;;;;;;5055947;28;20463;-83
2022/03/23 06:13:44;;;;;;;102.78;54.55;;;5.60;99.90;;;;;;5055951;28;20131;-83
2022/03/23 06:16:10;;;;;;;131.60;66.10;;;5.60;99.90;;;;;;5055283;28;20048;-83
2022/03/23 06:18:37;;;;;;;140.85;65.60;;;5.80;99.90;;;;;;5055442;28;20041;-83
2022/03/23 06:21:03;;;;;;;139.95;66.38;;;5.90;99.90;;;;;;5055722;28;20040;-84
2022/03/23 06:23:30;;;;;;;149.05;67.95;;;6.00;99.90;;;;;;5055291;28;20388;-84
2022/03/23 06:25:55;;;;;;;141.45;69.00;;;6.00;99.90;;;;;;5055282;28;20045;-83
2022/03/23 06:28:23;;;;;;;142.63;67.15;;;6.10;99.90;;;;;;5055609;28;20048;-84
2022/03/23 06:30:50;;;;;;;132.45;64.15;;;6.10;99.90;;;;;;5055218;28;20059;-84
2022/03/23 06:33:16;;;;;;;139.38;67.25;;;6.20;99.90;;;;;;5055236;28;20515;-83
2022/03/23 06:35:42;;;;;;;141.38;68.35;;;6.20;99.90;;;;;;5055212;28;20044;-83
2022/03/23 06:38:08;;;;;;;131.50;63.78;;;6.30;99.90;;;;;;5055412;28;20063;-83
2022/03/23 06:40:34;;;;;;;128.98;61.22;;;6.30;99.90;;;;;;5055528;28;20053;-83
2022/03/23 06:43:00;;;;;;;131.40;63.95;;;6.40;99.90;;;;;;5055264;28;20045;-83
2022/03/23 06:45:26;;;;;;;127.40;65.47;;;6.50;99.90;;;;;;5055107;28;20055;-83
2022/03/23 06:47:51;;;;;;;137.70;66.10;;;6.50;99.90;;;;;;5057957;28;20037;-83
2022/03/23 06:50:17;;;;;;;137.68;67.88;;;6.60;99.90;;;;;;5059107;28;20388;-83
2022/03/23 06:52:43;;;;;;;150.15;69.82;;;6.70;99.90;;;;;;5059076;28;20094;-83
2022/03/23 06:55:09;;;;;;;145.82;71.07;;;6.90;99.90;;;;;;5059114;28;20080;-83
2022/03/23 06:57:35;;;;;;;146.18;69.32;;;7.00;99.90;;;;;;5059087;28;20076;-83
2022/03/23 07:00:03;;;;;;;154.18;73.72;;;7.10;99.90;;;;;;5059286;28;20503;-84
2022/03/23 07:02:28;;;;;;;150.85;70.90;;;7.20;99.90;;;;;;5059030;28;20044;-84
2022/03/23 07:04:54;;;;;;;150.40;69.85;;;7.30;99.90;;;;;;5059057;28;20044;-83
2022/03/23 07:07:20;;;;;;;138.48;66.57;;;7.50;99.90;;;;;;5058898;28;20048;-84
2022/03/23 07:09:46;;;;;;;137.38;67.20;;;7.60;99.90;;;;;;5058722;28;20040;-84
2022/03/23 07:12:12;;;;;;;136.30;68.03;;;7.70;99.90;;;;;;5059094;28;20053;-84
2022/03/23 07:14:40;;;;;;;130.57;69.10;;;7.80;99.90;;;;;;5058868;28;20388;-84
2022/03/23 07:17:07;;;;;;;131.93;66.45;;;7.90;99.90;;;;;;5058761;28;20048;-83
2022/03/23 07:19:33;;;;;;;132.20;67.30;;;8.00;99.90;;;;;;5058680;28;20127;-83
2022/03/23 07:21:59;;;;;;;123.93;64.15;;;8.10;99.90;;;;;;5058642;28;20056;-83
2022/03/23 07:24:25;;;;;;;115.30;60.28;;;8.20;99.90;;;;;;5058653;28;20103;-83
2022/03/23 07:26:51;;;;;;;112.10;60.20;;;8.30;99.90;;;;;;5058536;28;20055;-84
2022/03/23 07:29:16;;;;;;;109.95;61.10;;;8.40;99.90;;;;;;5058797;28;20028;-83
2022/03/23 07:31:43;;;;;;;100.78;56.05;;;8.50;99.90;;;;;;5058346;28;20515;-84
2022/03/23 07:34:09;;;;;;;100.22;55.90;;;8.60;99.90;;;;;;5056996;28;20060;-86
2022/03/23 07:36:37;;;;;;;98.30;54.35;;;8.70;99.90;;;;;;5076520;28;20047;-84
2022/03/23 07:39:03;;;;;;;92.97;53.55;;;8.80;99.90;;;;;;5076131;28;20541;-85
2022/03/23 07:41:28;;;;;;;96.00;54.25;;;9.00;99.90;;;;;;5076123;28;20040;-84
2022/03/23 07:43:54;;;;;;;92.20;54.28;;;9.10;99.90;;;;;;5076363;28;20045;-84
2022/03/23 07:46:19;;;;;;;91.43;52.65;;;9.20;99.90;;;;;;5058728;28;20048;-84
2022/03/23 07:48:45;;;;;;;86.07;49.53;;;9.40;99.90;;;;;;5076211;28;20127;-84
2022/03/23 07:51:11;;;;;;;87.65;49.03;;;9.50;99.90;;;;;;5058047;28;20045;-84
2022/03/23 07:53:37;;;;;;;86.25;49.38;;;9.70;99.90;;;;;;5075923;28;20048;-84
2022/03/23 07:56:02;;;;;;;82.70;50.30;;;9.80;99.90;;;;;;5075817;28;20041;-82
2022/03/23 07:58:29;;;;;;;85.20;50.20;;;10.00;99.90;;;;;;5057131;28;20037;-81
2022/03/23 08:00:55;;;;;;;82.45;47.38;;;10.10;99.90;;;;;;5076104;28;20097;-80
2022/03/23 08:03:21;;;;;;;77.90;46.95;;;10.30;99.90;;;;;;5076016;28;20044;-80
2022/03/23 08:05:47;;;;;;;76.75;45.08;;;10.40;99.90;;;;;;5057842;28;20032;-81
2022/03/23 08:08:13;;;;;;;73.13;44.53;;;10.50;99.90;;;;;;5056715;28;20051;-82
2022/03/23 08:10:43;;;;;;;68.60;43.63;;;10.70;99.90;;;;;;5057399;28;20048;-82
2022/03/23 08:13:17;;;;;;;64.35;39.25;;;10.80;99.90;;;;;;5057584;28;20044;-82
2022/03/23 08:15:43;;;;;;;63.00;40.47;;;10.90;99.90;;;;;;5057372;28;20044;-83
2022/03/23 08:18:09;;;;;;;67.53;41.15;;;11.10;99.90;;;;;;5057614;28;20446;-82
2022/03/23 08:20:35;;;;;;;65.88;41.75;;;11.20;99.90;;;;;;5075234;28;20479;-82
2022/03/23 08:23:05;;;;;;;67.10;41.53;;;11.40;99.90;;;;;;5057539;28;20495;-82
2022/03/23 08:25:31;;;;;;;69.07;41.00;;;11.60;99.90;;;;;;5057410;28;20075;-82
2022/03/23 08:27:58;;;;;;;69.18;41.50;;;11.70;99.90;;;;;;5057497;28;20042;-79
2022/03/23 08:30:24;;;;;;;65.00;41.15;;;11.80;99.90;;;;;;5074806;28;20557;-80
2022/03/23 08:32:50;;;;;;;69.35;41.70;;;12.00;99.90;;;;;;5057084;28;20058;-79
2022/03/23 08:35:16;;;;;;;64.50;42.45;;;12.10;99.90;;;;;;5056990;28;20044;-79
2022/03/23 08:37:42;;;;;;;70.57;41.28;;;12.30;99.90;;;;;;5057120;28;20044;-79
2022/03/23 08:40:08;;;;;;;62.50;41.28;;;12.40;99.90;;;;;;5057004;28;20044;-79
2022/03/23 08:42:34;;;;;;;62.35;40.67;;;12.60;99.90;;;;;;5075176;28;20040;-79
2022/03/23 08:44:59;;;;;;;65.22;39.65;;;12.70;99.90;;;;;;5056830;28;20115;-79
2022/03/23 08:47:27;;;;;;;67.40;40.25;;;12.80;99.90;;;;;;5056810;28;20059;-79
2022/03/23 08:49:53;;;;;;;66.57;41.67;;;12.90;99.90;;;;;;5074582;28;20403;-79
2022/03/23 08:52:19;;;;;;;60.20;38.92;;;13.00;99.90;;;;;;5056663;28;20506;-81
2022/03/23 08:54:44;;;;;;;62.10;39.33;;;13.10;99.90;;;;;;5056819;28;20048;-81
2022/03/23 08:57:10;;;;;;;62.05;40.22;;;13.30;99.90;;;;;;5056808;28;20135;-81
2022/03/23 08:59:36;;;;;;;58.85;39.90;;;13.40;99.90;;;;;;5063233;28;20055;-81
2022/03/23 09:02:02;;;;;;;63.17;39.70;;;13.60;99.90;;;;;;5065440;28;20071;-80
2022/03/23 09:04:27;;;;;;;61.13;39.67;;;13.70;99.90;;;;;;5074461;28;20446;-81
2022/03/23 09:06:53;;;;;;;55.45;35.00;;;13.80;99.90;;;;;;5056665;28;20472;-81
2022/03/23 09:09:18;;;;;;;53.75;33.10;;;14.00;99.90;;;;;;5074553;28;20075;-82
2022/03/23 09:11:44;;;;;;;54.03;33.05;;;14.10;99.90;;;;;;5074601;28;20410;-82
2022/03/23 09:14:11;;;;;;;53.85;31.83;;;14.10;99.90;;;;;;5056595;28;20036;-81
2022/03/23 09:16:37;;;;;;;52.92;31.42;;;14.20;99.90;;;;;;5074533;28;20045;-82
2022/03/23 09:19:03;;;;;;;61.00;34.13;;;14.30;99.90;;;;;;5074456;28;20047;-82
2022/03/23 09:21:29;;;;;;;50.75;30.98;;;14.40;99.90;;;;;;5063090;28;20053;-80
2022/03/23 09:23:54;;;;;;;48.38;30.17;;;14.50;99.90;;;;;;5094477;28;20040;-80
2022/03/23 09:26:20;;;;;;;54.80;31.67;;;14.60;99.90;;;;;;5094414;28;20036;-80
2022/03/23 09:28:46;;;;;;;54.92;31.13;;;14.60;99.90;;;;;;5094436;28;20471;-81
2022/03/23 09:31:12;;;;;;;49.75;29.75;;;14.80;99.90;;;;;;5094071;28;20056;-79
2022/03/23 09:33:38;;;;;;;49.08;29.02;;;14.90;99.90;;;;;;5094112;28;20134;-86
2022/03/23 09:36:04;;;;;;;48.60;29.30;;;15.00;99.90;;;;;;5075982;28;20157;-82
2022/03/23 09:38:30;;;;;;;46.33;27.60;;;15.10;99.90;;;;;;5094165;28;20119;-80
2022/03/23 09:40:56;;;;;;;50.08;28.67;;;15.20;99.90;;;;;;5094032;28;20131;-80
2022/03/23 09:43:23;;;;;;;49.72;27.23;;;15.30;99.90;;;;;;5093904;28;20487;-79
2022/03/23 09:45:50;;;;;;;44.05;26.05;;;15.50;99.90;;;;;;5088357;28;20487;-79
2022/03/23 09:48:21;;;;;;;50.15;28.17;;;15.60;99.90;;;;;;5081976;28;20044;-80
2022/03/23 09:50:50;;;;;;;48.05;27.00;;;15.80;99.90;;;;;;5055835;28;20606;-79
2022/03/23 09:53:16;;;;;;;47.55;27.67;;;16.00;99.90;;;;;;5073504;28;20047;-78
2022/03/23 09:55:45;;;;;;;47.92;28.00;;;16.10;99.90;;;;;;5055730;28;20070;-79
2022/03/23 09:58:11;;;;;;;47.75;27.30;;;16.20;99.90;;;;;;5073749;28;20040;-79
2022/03/23 10:00:39;;;;;;;44.17;27.45;;;16.40;98.50;;;;;;5055813;28;20407;-80
2022/03/23 10:03:15;;;;;;;40.67;27.27;;;16.40;96.00;;;;;;5073616;28;20045;-81
2022/03/23 10:05:58;;;;;;;43.22;27.35;;;16.50;98.10;;;;;;5073532;28;20049;-81
2022/03/23 10:09:01;;;;;;;45.10;27.55;;;16.70;97.40;;;;;;5077731;28;20044;-80
2022/03/23 10:12:04;;;;;;;45.17;27.50;;;16.80;94.00;;;;;;5091109;28;20499;-80
2022/03/23 10:14:30;;;;;;;39.85;26.13;;;16.90;90.50;;;;;;5075157;28;20568;-80
2022/03/23 10:17:20;;;;;;;42.88;27.48;;;17.00;90.60;;;;;;5075866;28;20056;-80
2022/03/23 10:19:47;;;;;;;45.30;27.02;;;17.00;87.20;;;;;;5029005;28;20055;-80
2022/03/23 10:22:14;;;;;;;40.05;26.23;;;17.10;78.50;;;;;;5054559;28;20487;-81
2022/03/23 10:24:40;;;;;;;41.97;27.70;;;17.20;92.20;;;;;;5055426;28;20056;-81
2022/03/23 10:27:17;;;;;;;39.88;26.27;;;17.30;81.20;;;;;;5054649;28;20048;-79
2022/03/23 10:29:47;;;;;;;39.10;24.40;;;17.40;78.40;;;;;;5071448;28;20072;-83
2022/03/23 10:32:14;;;;;;;40.35;26.83;;;17.50;87.20;;;;;;5055022;28;20048;-82
2022/03/23 10:34:52;;;;;;;40.35;26.85;;;17.60;88.70;;;;;;5073083;28;20048;-82
2022/03/23 10:37:32;;;;;;;40.97;27.77;;;17.60;80.50;;;;;;5073055;28;20055;-85
2022/03/23 10:40:10;;;;;;;42.85;28.17;;;17.60;68.80;;;;;;5073157;28;20072;-85
2022/03/23 10:42:39;;;;;;;38.58;27.05;;;17.80;80.90;;;;;;5073051;28;20052;-83
2022/03/23 10:45:17;;;;;;;42.15;28.00;;;17.90;81.80;;;;;;5073113;28;20049;-82
2022/03/23 10:47:46;;;;;;;40.08;26.50;;;17.90;67.90;;;;;;5055035;28;20048;-81
2022/03/23 10:50:13;;;;;;;42.03;25.13;;;18.00;73.50;;;;;;5055370;28;20095;-85
2022/03/23 10:53:07;;;;;;;35.25;25.55;;;18.10;71.70;;;;;;5054750;28;20403;-81
2022/03/23 10:55:38;;;;;;;36.25;26.65;;;18.10;62.40;;;;;;5073070;28;20037;-80
2022/03/23 10:58:03;;;;;;;40.00;26.73;;;18.20;64.90;;;;;;5073141;28;20037;-81
2022/03/23 11:01:02;;;;;;;39.65;26.85;;;18.30;62.10;;;;;;5054735;28;20067;-84
2022/03/23 11:03:53;;;;;;;36.13;24.92;;;18.20;64.10;;;;;;5072889;28;20040;-81
2022/03/23 11:06:27;;;;;;;33.55;23.95;;;18.30;61.20;;;;;;5050311;28;20071;-83
2022/03/23 11:08:53;;;;;;;42.00;25.73;;;18.30;54.90;;;;;;5054778;28;20547;-84
2022/03/23 11:16:47;;;;;;;35.97;24.23;;;18.40;64.10;;;;;;5054619;28;20059;-84
2022/03/23 11:19:18;;;;;;;32.92;22.65;;;18.50;57.20;;;;;;5054933;28;20048;-82
2022/03/23 11:21:58;;;;;;;34.22;23.52;;;18.60;60.60;;;;;;5055279;28;20053;-81
2022/03/23 11:24:25;;;;;;;31.42;22.40;;;18.70;57.20;;;;;;5072580;28;20040;-87
2022/03/23 11:26:51;;;;;;;32.28;21.52;;;18.50;56.30;;;;;;5072597;28;20075;-82
2022/03/23 11:29:18;;;;;;;34.38;22.83;;;18.70;60.80;;;;;;5072742;28;20037;-83
2022/03/23 11:31:48;;;;;;;30.80;24.10;;;18.70;56.60;;;;;;5054428;28;20052;-84
2022/03/23 11:34:19;;;;;;;53.70;37.65;;;18.60;51.40;;;;;;5074032;28;20052;-84
2022/03/23 11:36:47;;;;;;;55.08;37.97;;;18.70;68.00;;;;;;5058024;28;20048;-82
2022/03/23 11:39:13;;;;;;;57.78;40.45;;;18.60;73.20;;;;;;5058334;28;20446;-82
2022/03/23 11:41:41;;;;;;;57.38;39.05;;;18.70;81.60;;;;;;5076057;28;20048;-82
2022/03/23 11:44:07;;;;;;;55.65;41.00;;;18.40;81.70;;;;;;5057994;28;20420;-83
2022/03/23 11:46:33;;;;;;;54.35;36.15;;;18.60;83.60;;;;;;5075744;28;20480;-84
2022/03/23 11:49:07;;;;;;;54.15;38.88;;;18.80;98.10;;;;;;5076147;28;20072;-83
2022/03/23 11:51:53;;;;;;;55.65;39.00;;;18.80;98.60;;;;;;5058026;28;20448;-82
2022/03/23 11:55:37;;;;;;;54.50;37.60;;;18.80;97.20;;;;;;5075715;28;20048;-80
2022/03/23 11:57:16;;;;;;;53.00;37.05;;;18.50;98.00;;;;;;5057144;28;20702;-80
2022/03/23 11:59:43;;;;;;;51.15;34.53;;;18.50;99.90;;;;;;5058059;28;20127;-84
2022/03/23 12:02:09;;;;;;;50.85;35.15;;;18.60;99.90;;;;;;5075555;28;20048;-82
2022/03/23 12:04:38;;;;;;;52.28;36.42;;;18.60;99.90;;;;;;5075654;28;20357;-83
2022/03/23 12:07:09;;;;;;;47.85;33.83;;;18.60;99.90;;;;;;5075509;28;20391;-83
2022/03/23 12:09:40;;;;;;;50.78;35.33;;;18.30;93.10;;;;;;5075562;28;20480;-82
2022/03/23 12:12:13;;;;;;;56.20;38.83;;;18.20;91.20;;;;;;5075813;28;20036;-80
2022/03/23 12:14:40;;;;;;;50.97;37.85;;;18.30;95.30;;;;;;5075353;28;20109;-83
2022/03/23 12:17:10;;;;;;;51.90;39.10;;;18.50;99.90;;;;;;5075589;28;20055;-82
2022/03/23 12:20:03;;;;;;;50.25;36.45;;;18.50;98.10;;;;;;5075620;28;20044;-81
2022/03/23 12:22:32;;;;;;;48.28;35.88;;;18.50;99.90;;;;;;5057275;28;20048;-81
2022/03/23 12:25:19;;;;;;;49.58;37.30;;;18.30;98.90;;;;;;5057189;28;20044;-81
2022/03/23 12:28:15;;;;;;;49.20;37.35;;;18.00;96.40;;;;;;5075425;28;20048;-81
2022/03/23 12:30:58;;;;;;;53.17;37.47;;;17.90;95.20;;;;;;5075247;28;20048;-81
2022/03/23 12:33:27;;;;;;;47.17;35.47;;;17.60;91.60;;;;;;5075307;28;20067;-80
2022/03/23 12:36:02;;;;;;;50.63;37.47;;;17.70;97.10;;;;;;5056861;28;20131;-80
2022/03/23 12:38:29;;;;;;;55.13;39.42;;;17.70;92.10;;;;;;5075162;28;20098;-80
2022/03/23 12:41:09;;;;;;;50.50;36.28;;;17.60;91.30;;;;;;5074793;28;20458;-84
2022/03/23 12:43:46;;;;;;;52.85;37.20;;;17.90;97.60;;;;;;5057090;28;20052;-81
2022/03/23 12:46:22;;;;;;;52.15;36.35;;;17.60;92.10;;;;;;5056834;28;20048;-80
2022/03/23 12:57:50;;;;;;;50.00;34.35;;;17.80;89.60;;;;;;5056869;28;20068;-82